createdAt,value
2018-02-18T00:00:25.166Z,0
2018-02-18T00:01:25.576Z,0
2018-02-18T00:02:25.075Z,0
2018-02-18T00:03:25.078Z,0
2018-02-18T00:04:24.982Z,0
2018-02-18T00:05:25.115Z,0
2018-02-18T00:06:26.188Z,0
2018-02-18T00:07:24.943Z,0
2018-02-18T00:08:24.573Z,0
2018-02-18T00:09:25.172Z,0
2018-02-18T00:10:25.671Z,0
2018-02-18T00:11:24.951Z,0
2018-02-18T00:12:24.928Z,0
2018-02-18T00:13:25.007Z,0
2018-02-18T00:14:25.068Z,0
2018-02-18T00:15:25.329Z,0
2018-02-18T00:16:24.431Z,0
2018-02-18T00:17:24.842Z,0
2018-02-18T00:18:24.954Z,0
2018-02-18T00:19:25.350Z,0
2018-02-18T00:20:24.134Z,0
2018-02-18T00:21:25.524Z,0
2018-02-18T00:23:08.230Z,0
2018-02-18T00:24:30.626Z,0
2018-02-18T00:25:30.257Z,0
2018-02-18T00:26:30.928Z,0
2018-02-18T00:27:30.525Z,0
2018-02-18T00:28:31.261Z,0
2018-02-18T00:29:30.984Z,0
2018-02-18T00:30:30.936Z,0
2018-02-18T00:31:30.299Z,0
2018-02-18T00:32:30.915Z,0
2018-02-18T00:33:31.459Z,0
2018-02-18T00:34:52.384Z,0
2018-02-18T00:35:53.487Z,0
2018-02-18T00:36:53.297Z,0
2018-02-18T00:37:53.056Z,0
2018-02-18T00:38:52.430Z,0
2018-02-18T00:39:53.375Z,0
2018-02-18T00:40:52.609Z,0
2018-02-18T00:41:52.960Z,0
2018-02-18T00:42:52.564Z,0
2018-02-18T00:43:53.417Z,0
2018-02-18T00:44:52.896Z,0
2018-02-18T00:45:53.814Z,0
2018-02-18T00:46:53.600Z,0
2018-02-18T00:47:52.983Z,0
2018-02-18T00:48:52.628Z,0
2018-02-18T00:49:54.592Z,0
2018-02-18T00:50:53.353Z,0
2018-02-18T00:51:53.267Z,0
2018-02-18T00:53:17.930Z,0
2018-02-18T00:54:18.133Z,0
2018-02-18T00:55:20.729Z,0
2018-02-18T00:56:18.259Z,0
2018-02-18T00:57:17.983Z,0
2018-02-18T00:58:17.818Z,0
2018-02-18T00:59:18.388Z,0
2018-02-18T01:00:17.791Z,0
2018-02-18T01:01:17.868Z,0
2018-02-18T01:02:18.249Z,0
2018-02-18T01:03:18.010Z,0
2018-02-18T01:04:17.845Z,0
2018-02-18T01:05:18.753Z,0
2018-02-18T01:06:18.639Z,0
2018-02-18T01:07:18.451Z,0
2018-02-18T01:08:18.343Z,0
2018-02-18T01:09:17.749Z,0
2018-02-18T01:10:18.720Z,0
2018-02-18T01:11:18.589Z,0
2018-02-18T01:12:18.449Z,0
2018-02-18T01:13:17.962Z,0
2018-02-18T01:14:17.516Z,0
2018-02-18T01:15:19.689Z,0
2018-02-18T01:16:18.663Z,0
2018-02-18T01:17:18.206Z,0
2018-02-18T01:18:17.898Z,0
2018-02-18T01:19:17.480Z,0
2018-02-18T01:20:17.996Z,0
2018-02-18T01:21:17.862Z,0
2018-02-18T01:22:17.764Z,0
2018-02-18T01:23:40.351Z,0
2018-02-18T01:24:41.272Z,0
2018-02-18T01:25:40.148Z,0
2018-02-18T01:26:40.954Z,0
2018-02-18T01:27:40.467Z,0
2018-02-18T01:28:40.824Z,0
2018-02-18T01:29:40.876Z,0
2018-02-18T01:30:40.724Z,0
2018-02-18T01:31:40.676Z,0
2018-02-18T01:32:40.308Z,0
2018-02-18T01:33:40.858Z,0
2018-02-18T01:34:40.140Z,0
2018-02-18T01:35:41.219Z,0
2018-02-18T01:36:40.816Z,0
2018-02-18T01:37:40.291Z,0
2018-02-18T01:38:41.237Z,0
2018-02-18T01:39:41.127Z,0
2018-02-18T01:40:41.083Z,0
2018-02-18T01:41:40.623Z,0
2018-02-18T01:42:40.682Z,0
2018-02-18T01:43:40.385Z,0
2018-02-18T01:44:40.345Z,0
2018-02-18T01:45:39.958Z,0
2018-02-18T01:46:40.962Z,0
2018-02-18T01:47:40.507Z,0
2018-02-18T01:48:40.155Z,0
2018-02-18T01:49:41.010Z,0
2018-02-18T01:50:40.669Z,0
2018-02-18T01:51:40.266Z,0
2018-02-18T01:52:41.071Z,0
2018-02-18T01:53:40.932Z,0
2018-02-18T01:54:40.886Z,0
2018-02-18T01:55:40.878Z,0
2018-02-18T01:56:40.643Z,0
2018-02-18T01:57:40.062Z,0
2018-02-18T01:58:40.304Z,0
2018-02-18T01:59:40.136Z,0
2018-02-18T02:00:41.201Z,0
2018-02-18T02:01:40.755Z,0
2018-02-18T02:02:40.610Z,0
2018-02-18T02:03:40.446Z,0
2018-02-18T02:04:40.420Z,0
2018-02-18T02:05:39.912Z,0
2018-02-18T02:06:40.654Z,0
2018-02-18T02:07:40.780Z,0
2018-02-18T02:08:40.748Z,0
2018-02-18T02:09:40.429Z,0
2018-02-18T02:10:40.236Z,0
2018-02-18T02:11:40.231Z,0
2018-02-18T02:12:40.904Z,0
2018-02-18T02:13:40.660Z,0
2018-02-18T02:14:40.125Z,0
2018-02-18T02:15:40.965Z,0
2018-02-18T02:16:40.813Z,0
2018-02-18T02:17:40.625Z,0
2018-02-18T02:18:40.597Z,0
2018-02-18T02:19:40.348Z,0
2018-02-18T02:20:41.104Z,0
2018-02-18T02:21:40.586Z,0
2018-02-18T02:22:39.947Z,0
2018-02-18T02:23:40.770Z,0
2018-02-18T02:24:40.182Z,0
2018-02-18T02:25:41.145Z,0
2018-02-18T02:26:41.045Z,0
2018-02-18T02:27:40.825Z,0
2018-02-18T02:28:40.369Z,0
2018-02-18T02:29:40.055Z,0
2018-02-18T02:30:40.573Z,0
2018-02-18T02:31:40.563Z,0
2018-02-18T02:32:40.381Z,0
2018-02-18T02:33:40.193Z,0
2018-02-18T02:35:02.187Z,0
2018-02-18T02:36:03.131Z,0
2018-02-18T02:37:02.840Z,0
2018-02-18T02:38:02.359Z,0
2018-02-18T02:39:03.233Z,0
2018-02-18T02:40:02.707Z,0
2018-02-18T02:41:03.048Z,0
2018-02-18T02:42:02.575Z,0
2018-02-18T02:43:24.862Z,0
2018-02-18T02:44:26.002Z,0
2018-02-18T02:45:25.965Z,0
2018-02-18T02:46:25.465Z,0
2018-02-18T02:47:46.512Z,0
2018-02-18T02:48:46.891Z,0
2018-02-18T02:49:46.701Z,0
2018-02-18T02:50:46.322Z,0
2018-02-18T02:51:47.016Z,0
2018-02-18T02:52:46.446Z,0
2018-02-18T02:53:47.276Z,0
2018-02-18T02:54:46.874Z,0
2018-02-18T02:55:46.644Z,0
2018-02-18T02:56:46.837Z,0
2018-02-18T02:57:46.684Z,0
2018-02-18T02:58:47.389Z,0
2018-02-18T02:59:46.731Z,0
2018-02-18T03:00:46.590Z,0
2018-02-18T03:01:46.461Z,0
2018-02-18T03:02:46.810Z,0
2018-02-18T03:03:46.195Z,0
2018-02-18T03:04:46.794Z,0
2018-02-18T03:05:46.208Z,0
2018-02-18T03:06:46.644Z,0
2018-02-18T03:08:08.505Z,0
2018-02-18T03:09:09.012Z,0
2018-02-18T03:10:08.456Z,0
2018-02-18T03:11:09.035Z,0
2018-02-18T03:12:09.709Z,0
2018-02-18T03:13:09.126Z,0
2018-02-18T03:14:08.900Z,0
2018-02-18T03:15:09.481Z,0
2018-02-18T03:16:09.110Z,0
2018-02-18T03:17:08.846Z,0
2018-02-18T03:18:09.551Z,0
2018-02-18T03:19:09.501Z,0
2018-02-18T03:20:09.308Z,0
2018-02-18T03:21:08.979Z,0
2018-02-18T03:22:31.637Z,0
2018-02-18T03:23:32.191Z,0
2018-02-18T03:24:31.639Z,0
2018-02-18T03:25:32.385Z,0
2018-02-18T03:26:32.248Z,0
2018-02-18T03:27:31.666Z,0
2018-02-18T03:28:32.022Z,0
2018-02-18T03:29:31.881Z,0
2018-02-18T03:30:53.310Z,0
2018-02-18T03:31:53.686Z,0
2018-02-18T03:32:54.512Z,0
2018-02-18T03:33:54.221Z,0
2018-02-18T03:34:54.090Z,0
2018-02-18T03:35:55.131Z,0
2018-02-18T03:36:53.727Z,0
2018-02-18T03:37:54.360Z,0
2018-02-18T03:38:54.261Z,0
2018-02-18T03:39:53.705Z,0
2018-02-18T03:40:54.667Z,0
2018-02-18T03:41:54.349Z,0
2018-02-18T03:42:53.946Z,0
2018-02-18T03:43:53.472Z,0
2018-02-18T03:44:54.428Z,0
2018-02-18T03:45:53.704Z,0
2018-02-18T03:46:54.552Z,0
2018-02-18T03:47:53.728Z,0
2018-02-18T03:48:54.507Z,0
2018-02-18T03:49:54.419Z,0
2018-02-18T03:50:54.619Z,0
2018-02-18T03:51:54.127Z,0
2018-02-18T03:52:53.606Z,0
2018-02-18T03:53:53.917Z,0
2018-02-18T03:54:53.484Z,0
2018-02-18T03:55:54.123Z,0
2018-02-18T03:56:53.608Z,0
2018-02-18T03:57:54.502Z,0
2018-02-18T03:58:54.317Z,0
2018-02-18T03:59:53.972Z,0
2018-02-18T04:00:53.882Z,0
2018-02-18T04:01:53.478Z,0
2018-02-18T04:02:54.214Z,0
2018-02-18T04:03:53.836Z,0
2018-02-18T04:04:54.384Z,0
2018-02-18T04:05:54.168Z,0
2018-02-18T04:06:54.089Z,0
2018-02-18T04:07:53.780Z,0
2018-02-18T04:08:54.175Z,0
2018-02-18T04:09:53.945Z,0
2018-02-18T04:10:53.695Z,0
2018-02-18T04:11:54.522Z,0
2018-02-18T04:12:56.071Z,0
2018-02-18T04:13:53.844Z,0
2018-02-18T04:14:54.450Z,0
2018-02-18T04:16:15.223Z,0
2018-02-18T04:17:15.904Z,0
2018-02-18T04:18:15.372Z,0
2018-02-18T04:19:15.995Z,0
2018-02-18T04:20:15.539Z,0
2018-02-18T04:21:15.820Z,0
2018-02-18T04:22:15.608Z,0
2018-02-18T04:23:16.389Z,0
2018-02-18T04:24:16.093Z,0
2018-02-18T04:25:15.305Z,0
2018-02-18T04:26:15.966Z,0
2018-02-18T04:27:15.358Z,0
2018-02-18T04:28:15.665Z,0
2018-02-18T04:29:15.351Z,0
2018-02-18T04:30:15.797Z,0
2018-02-18T04:31:15.557Z,0
2018-02-18T04:32:15.355Z,0
2018-02-18T04:33:16.187Z,0
2018-02-18T04:34:15.643Z,0
2018-02-18T04:35:58.048Z,0
2018-02-18T04:36:58.628Z,0
2018-02-18T04:37:58.535Z,0
2018-02-18T04:38:57.918Z,0
2018-02-18T04:39:58.600Z,0
2018-02-18T04:40:58.358Z,0
2018-02-18T04:41:57.820Z,0
2018-02-18T04:42:58.273Z,0
2018-02-18T04:43:57.776Z,0
2018-02-18T04:45:19.878Z,0
2018-02-18T04:46:20.144Z,0
2018-02-18T04:47:20.625Z,0
2018-02-18T04:48:20.536Z,0
2018-02-18T04:49:20.470Z,0
2018-02-18T04:50:20.031Z,0
2018-02-18T04:51:20.426Z,0
2018-02-18T04:52:20.300Z,0
2018-02-18T04:53:21.134Z,0
2018-02-18T04:54:20.652Z,0
2018-02-18T04:55:20.239Z,0
2018-02-18T04:56:20.675Z,0
2018-02-18T04:57:20.569Z,0
2018-02-18T04:58:20.109Z,0
2018-02-18T04:59:20.924Z,0
2018-02-18T05:00:20.345Z,0
2018-02-18T05:01:42.078Z,0
2018-02-18T05:02:42.712Z,0
2018-02-18T05:03:42.478Z,0
2018-02-18T05:04:42.850Z,0
2018-02-18T05:05:42.819Z,0
2018-02-18T05:06:42.153Z,0
2018-02-18T05:07:42.515Z,0
2018-02-18T05:08:43.202Z,0
2018-02-18T05:09:42.400Z,0
2018-02-18T05:10:42.816Z,0
2018-02-18T05:11:42.551Z,0
2018-02-18T05:12:43.345Z,0
2018-02-18T05:13:42.763Z,0
2018-02-18T05:14:42.453Z,0
2018-02-18T05:15:43.168Z,0
2018-02-18T05:16:42.916Z,0
2018-02-18T05:17:42.312Z,0
2018-02-18T05:18:42.659Z,0
2018-02-18T05:19:42.202Z,0
2018-02-18T05:20:42.992Z,0
2018-02-18T05:21:42.660Z,0
2018-02-18T05:22:42.063Z,0
2018-02-18T05:23:42.875Z,0
2018-02-18T05:24:42.220Z,0
2018-02-18T05:26:03.942Z,0
2018-02-18T05:27:04.488Z,0
2018-02-18T05:28:05.243Z,0
2018-02-18T05:29:04.866Z,0
2018-02-18T05:30:04.314Z,0
2018-02-18T05:31:04.905Z,0
2018-02-18T05:32:04.574Z,0
2018-02-18T05:33:04.089Z,0
2018-02-18T05:34:04.796Z,0
2018-02-18T05:35:04.379Z,0
2018-02-18T05:36:04.666Z,0
2018-02-18T05:37:04.461Z,0
2018-02-18T05:38:05.014Z,0
2018-02-18T05:39:04.798Z,0
2018-02-18T05:40:04.304Z,0
2018-02-18T05:41:05.027Z,0
2018-02-18T05:42:04.668Z,0
2018-02-18T05:43:04.332Z,0
2018-02-18T05:44:05.039Z,0
2018-02-18T05:45:04.738Z,0
2018-02-18T05:46:04.228Z,0
2018-02-18T05:47:04.640Z,0
2018-02-18T05:48:25.416Z,0
2018-02-18T05:49:47.367Z,0
2018-02-18T05:50:48.221Z,0
2018-02-18T05:51:47.651Z,0
2018-02-18T05:53:08.854Z,0
2018-02-18T05:54:09.428Z,0
2018-02-18T05:55:08.769Z,0
2018-02-18T05:56:09.554Z,0
2018-02-18T05:57:09.018Z,0
2018-02-18T05:58:09.478Z,0
2018-02-18T05:59:08.746Z,0
2018-02-18T06:00:09.339Z,0
2018-02-18T06:01:10.185Z,0
2018-02-18T06:02:10.072Z,0
2018-02-18T06:03:09.818Z,0
2018-02-18T06:04:09.532Z,0
2018-02-18T06:05:08.965Z,0
2018-02-18T06:06:09.420Z,0
2018-02-18T06:07:30.402Z,0
2018-02-18T06:08:31.065Z,0
2018-02-18T06:09:30.455Z,0
2018-02-18T06:10:30.921Z,0
2018-02-18T06:11:31.565Z,0
2018-02-18T06:12:31.233Z,0
2018-02-18T06:13:30.692Z,0
2018-02-18T06:14:31.568Z,0
2018-02-18T06:15:31.445Z,0
2018-02-18T06:16:31.030Z,0
2018-02-18T06:17:30.761Z,0
2018-02-18T06:18:31.583Z,0
2018-02-18T06:19:31.137Z,0
2018-02-18T06:20:52.112Z,0
2018-02-18T06:21:52.402Z,0
2018-02-18T06:22:52.231Z,0
2018-02-18T06:23:53.037Z,0
2018-02-18T06:24:52.558Z,0
2018-02-18T06:25:52.263Z,0
2018-02-18T06:26:52.190Z,1
2018-02-18T06:27:52.619Z,1
2018-02-18T06:28:52.573Z,1
2018-02-18T06:29:52.081Z,1
2018-02-18T06:30:52.636Z,1
2018-02-18T06:31:52.031Z,1
2018-02-18T06:33:14.070Z,1
2018-02-18T06:34:36.068Z,2
2018-02-18T06:35:36.508Z,2
2018-02-18T06:36:35.826Z,2
2018-02-18T06:37:36.238Z,2
2018-02-18T06:38:36.957Z,3
2018-02-18T06:39:36.526Z,3
2018-02-18T06:40:36.346Z,3
2018-02-18T06:41:36.067Z,3
2018-02-18T06:42:36.833Z,4
2018-02-18T06:43:36.427Z,4
2018-02-18T06:44:35.828Z,4
2018-02-18T06:45:36.633Z,5
2018-02-18T06:46:36.021Z,5
2018-02-18T06:47:36.559Z,5
2018-02-18T06:48:36.519Z,6
2018-02-18T06:49:36.416Z,6
2018-02-18T06:50:35.690Z,7
2018-02-18T06:51:57.700Z,7
2018-02-18T06:52:58.121Z,8
2018-02-18T06:53:58.866Z,9
2018-02-18T06:54:58.215Z,9
2018-02-18T06:56:20.500Z,10
2018-02-18T06:57:21.498Z,10
2018-02-18T06:58:21.554Z,11
2018-02-18T06:59:21.027Z,12
2018-02-18T07:00:20.729Z,12
2018-02-18T07:01:21.585Z,13
2018-02-18T07:02:21.129Z,14
2018-02-18T07:03:20.733Z,14
2018-02-18T07:04:20.293Z,14
2018-02-18T07:05:21.176Z,14
2018-02-18T07:06:20.930Z,15
2018-02-18T07:07:20.365Z,15
2018-02-18T07:08:21.263Z,16
2018-02-18T07:09:20.858Z,16
2018-02-18T07:10:20.288Z,16
2018-02-18T07:11:20.683Z,16
2018-02-18T07:12:21.342Z,16
2018-02-18T07:13:21.284Z,17
2018-02-18T07:14:20.702Z,19
2018-02-18T07:15:20.673Z,19
2018-02-18T07:16:21.481Z,19
2018-02-18T07:17:21.588Z,21
2018-02-18T07:18:21.583Z,22
2018-02-18T07:19:21.235Z,23
2018-02-18T07:20:42.356Z,23
2018-02-18T07:21:42.971Z,23
2018-02-18T07:22:42.683Z,24
2018-02-18T07:23:42.280Z,25
2018-02-18T07:24:43.063Z,25
2018-02-18T07:25:42.620Z,25
2018-02-18T07:26:43.050Z,26
2018-02-18T07:27:42.673Z,28
2018-02-18T07:28:42.669Z,31
2018-02-18T07:29:42.509Z,34
2018-02-18T07:31:04.102Z,35
2018-02-18T07:32:04.750Z,38
2018-02-18T07:33:04.282Z,40
2018-02-18T07:34:03.667Z,39
2018-02-18T07:35:04.607Z,38
2018-02-18T07:36:04.190Z,39
2018-02-18T07:37:04.006Z,42
2018-02-18T07:38:04.765Z,41
2018-02-18T07:39:04.385Z,44
2018-02-18T07:40:03.756Z,45
2018-02-18T07:41:04.545Z,41
2018-02-18T07:42:25.678Z,41
2018-02-18T07:43:25.367Z,42
2018-02-18T07:44:26.266Z,45
2018-02-18T07:45:25.924Z,45
2018-02-18T07:46:25.788Z,43
2018-02-18T07:47:26.916Z,39
2018-02-18T07:48:25.476Z,35
2018-02-18T07:49:47.771Z,34
2018-02-18T07:50:48.632Z,33
2018-02-18T07:52:31.260Z,34
2018-02-18T07:53:32.165Z,34
2018-02-18T07:54:31.794Z,33
2018-02-18T07:55:31.590Z,33
2018-02-18T07:56:32.059Z,33
2018-02-18T07:57:31.597Z,34
2018-02-18T07:58:32.410Z,35
2018-02-18T07:59:32.090Z,34
2018-02-18T08:00:32.180Z,34
2018-02-18T08:01:31.898Z,34
2018-02-18T08:02:31.783Z,33
2018-02-18T08:03:31.630Z,33
2018-02-18T08:04:32.428Z,33
2018-02-18T08:05:31.841Z,33
2018-02-18T08:06:31.390Z,33
2018-02-18T08:07:32.176Z,33
2018-02-18T08:08:31.726Z,34
2018-02-18T08:09:31.598Z,34
2018-02-18T08:10:54.072Z,34
2018-02-18T08:11:54.487Z,35
2018-02-18T08:13:16.967Z,34
2018-02-18T08:14:17.911Z,35
2018-02-18T08:15:17.404Z,36
2018-02-18T08:16:38.493Z,36
2018-02-18T08:17:39.047Z,34
2018-02-18T08:18:39.371Z,37
2018-02-18T08:19:39.408Z,38
2018-02-18T08:20:39.065Z,39
2018-02-18T08:21:39.704Z,39
2018-02-18T08:22:39.265Z,40
2018-02-18T08:23:38.969Z,40
2018-02-18T08:24:39.047Z,41
2018-02-18T08:25:38.752Z,41
2018-02-18T08:26:39.681Z,42
2018-02-18T08:27:39.481Z,43
2018-02-18T08:28:39.243Z,43
2018-02-18T08:29:38.992Z,43
2018-02-18T08:30:39.117Z,44
2018-02-18T08:31:38.623Z,45
2018-02-18T08:32:39.484Z,44
2018-02-18T08:33:39.534Z,47
2018-02-18T08:34:39.388Z,48
2018-02-18T08:35:38.996Z,48
2018-02-18T08:36:38.584Z,49
2018-02-18T08:37:39.185Z,48
2018-02-18T08:38:39.077Z,43
2018-02-18T08:39:38.701Z,41
2018-02-18T08:40:39.782Z,41
2018-02-18T08:41:39.759Z,40
2018-02-18T08:42:40.500Z,44
2018-02-18T08:43:39.295Z,42
2018-02-18T08:44:39.080Z,38
2018-02-18T08:45:39.018Z,41
2018-02-18T08:46:38.688Z,43
2018-02-18T08:47:39.413Z,43
2018-02-18T08:48:38.859Z,42
2018-02-18T08:49:38.436Z,47
2018-02-18T08:50:38.989Z,47
2018-02-18T08:51:38.449Z,42
2018-02-18T08:52:39.007Z,43
2018-02-18T08:53:38.743Z,44
2018-02-18T08:54:39.776Z,45
2018-02-18T08:55:39.652Z,46
2018-02-18T08:56:39.480Z,46
2018-02-18T08:57:39.362Z,47
2018-02-18T08:58:38.811Z,48
2018-02-18T08:59:39.354Z,48
2018-02-18T09:00:39.144Z,49
2018-02-18T09:01:38.556Z,50
2018-02-18T09:02:40.125Z,58
2018-02-18T09:03:39.108Z,82
2018-02-18T09:04:38.657Z,111
2018-02-18T09:05:39.645Z,125
2018-02-18T09:06:39.593Z,133
2018-02-18T09:07:39.115Z,131
2018-02-18T09:08:38.810Z,128
2018-02-18T09:09:38.838Z,135
2018-02-18T09:10:38.563Z,146
2018-02-18T09:11:39.191Z,209
2018-02-18T09:12:38.922Z,229
2018-02-18T09:13:38.925Z,220
2018-02-18T09:14:39.521Z,213
2018-02-18T09:15:39.619Z,220
2018-02-18T09:16:39.728Z,213
2018-02-18T09:17:39.731Z,208
2018-02-18T09:18:39.464Z,211
2018-02-18T09:19:39.085Z,218
2018-02-18T09:20:38.890Z,220
2018-02-18T09:21:39.884Z,194
2018-02-18T09:22:39.093Z,172
2018-02-18T09:24:22.588Z,167
2018-02-18T09:25:22.181Z,157
2018-02-18T09:27:06.089Z,145
2018-02-18T09:28:06.294Z,151
2018-02-18T09:29:06.261Z,158
2018-02-18T09:30:06.022Z,161
2018-02-18T09:31:06.789Z,161
2018-02-18T09:32:06.997Z,158
2018-02-18T09:33:06.948Z,161
2018-02-18T09:34:06.227Z,166
2018-02-18T09:35:06.038Z,167
2018-02-18T09:36:06.611Z,169
2018-02-18T09:37:49.765Z,171
2018-02-18T09:38:50.529Z,172
2018-02-18T09:39:50.412Z,172
2018-02-18T09:40:51.230Z,173
2018-02-18T09:41:51.294Z,174
2018-02-18T09:42:50.389Z,174
2018-02-18T09:43:50.569Z,173
2018-02-18T09:44:50.212Z,174
2018-02-18T09:45:50.637Z,163
2018-02-18T09:46:50.530Z,126
2018-02-18T09:47:50.382Z,131
2018-02-18T09:48:50.344Z,146
2018-02-18T09:50:12.063Z,174
2018-02-18T09:51:13.153Z,177
2018-02-18T09:52:56.822Z,159
2018-02-18T09:53:56.706Z,153
2018-02-18T09:55:18.886Z,170
2018-02-18T09:56:19.520Z,145
2018-02-18T09:57:19.086Z,155
2018-02-18T09:58:19.740Z,149
2018-02-18T09:59:19.755Z,166
2018-02-18T10:00:20.019Z,178
2018-02-18T10:01:19.558Z,181
2018-02-18T10:02:19.420Z,182
2018-02-18T10:03:19.414Z,182
2018-02-18T10:04:19.566Z,183
2018-02-18T10:05:19.280Z,184
2018-02-18T10:06:19.741Z,185
2018-02-18T10:07:19.269Z,184
2018-02-18T10:08:19.893Z,185
2018-02-18T10:09:20.334Z,186
2018-02-18T10:10:20.029Z,185
2018-02-18T10:11:20.059Z,186
2018-02-18T10:12:19.911Z,189
2018-02-18T10:13:19.432Z,188
2018-02-18T10:14:19.534Z,189
2018-02-18T10:15:19.536Z,190
2018-02-18T10:16:41.422Z,191
2018-02-18T10:17:41.897Z,188
2018-02-18T10:18:41.939Z,189
2018-02-18T10:19:41.691Z,186
2018-02-18T10:20:41.675Z,171
2018-02-18T10:21:41.285Z,165
2018-02-18T10:22:42.885Z,158
2018-02-18T10:23:41.940Z,159
2018-02-18T10:24:41.967Z,187
2018-02-18T10:25:41.643Z,189
2018-02-18T10:26:41.466Z,188
2018-02-18T10:27:41.155Z,187
2018-02-18T10:28:41.998Z,190
2018-02-18T10:29:41.807Z,189
2018-02-18T10:30:42.554Z,189
2018-02-18T10:31:41.478Z,189
2018-02-18T10:32:41.482Z,189
2018-02-18T10:33:41.258Z,187
2018-02-18T10:34:42.028Z,171
2018-02-18T10:35:43.106Z,184
2018-02-18T10:36:44.034Z,188
2018-02-18T10:37:43.950Z,190
2018-02-18T10:38:43.962Z,190
2018-02-18T10:39:44.373Z,190
2018-02-18T10:40:42.958Z,193
2018-02-18T10:42:04.206Z,195
2018-02-18T10:43:04.752Z,200
2018-02-18T10:44:05.833Z,206
2018-02-18T10:45:03.718Z,198
2018-02-18T10:46:04.818Z,196
2018-02-18T10:47:05.302Z,197
2018-02-18T10:48:04.442Z,199
2018-02-18T10:49:04.306Z,202
2018-02-18T10:50:04.680Z,203
2018-02-18T10:51:26.300Z,202
2018-02-18T10:52:27.821Z,204
2018-02-18T10:53:26.903Z,203
2018-02-18T10:54:27.284Z,206
2018-02-18T10:55:27.405Z,210
2018-02-18T10:56:26.364Z,207
2018-02-18T10:57:26.961Z,198
2018-02-18T10:58:26.949Z,197
2018-02-18T10:59:26.766Z,204
2018-02-18T11:00:27.026Z,212
2018-02-18T11:01:26.485Z,223
2018-02-18T11:02:48.164Z,241
2018-02-18T11:03:48.151Z,260
2018-02-18T11:04:48.145Z,272
2018-02-18T11:05:47.986Z,289
2018-02-18T11:06:48.995Z,310
2018-02-18T11:07:47.778Z,320
2018-02-18T11:08:48.605Z,331
2018-02-18T11:09:48.265Z,342
2018-02-18T11:10:48.189Z,350
2018-02-18T11:11:48.317Z,357
2018-02-18T11:12:48.449Z,364
2018-02-18T11:13:49.622Z,365
2018-02-18T11:14:48.832Z,356
2018-02-18T11:16:11.136Z,375
2018-02-18T11:17:12.352Z,386
2018-02-18T11:18:12.599Z,390
2018-02-18T11:19:11.458Z,398
2018-02-18T11:20:12.047Z,414
2018-02-18T11:21:13.499Z,416
2018-02-18T11:22:11.561Z,392
2018-02-18T11:23:11.831Z,395
2018-02-18T11:24:12.244Z,380
2018-02-18T11:25:11.197Z,404
2018-02-18T11:26:11.988Z,401
2018-02-18T11:27:12.193Z,412
2018-02-18T11:28:12.384Z,417
2018-02-18T11:29:11.479Z,411
2018-02-18T11:30:11.291Z,416
2018-02-18T11:31:11.946Z,408
2018-02-18T11:32:11.889Z,405
2018-02-18T11:33:12.222Z,411
2018-02-18T11:34:12.326Z,404
2018-02-18T11:35:12.286Z,390
2018-02-18T11:36:33.409Z,393
2018-02-18T11:37:34.335Z,413
2018-02-18T11:38:34.559Z,401
2018-02-18T11:39:34.697Z,415
2018-02-18T11:40:33.708Z,419
2018-02-18T11:41:54.843Z,405
2018-02-18T11:42:55.910Z,411
2018-02-18T11:43:55.443Z,419
2018-02-18T11:44:55.730Z,401
2018-02-18T11:45:55.529Z,409
2018-02-18T11:46:55.694Z,423
2018-02-18T11:47:55.997Z,424
2018-02-18T11:48:56.183Z,435
2018-02-18T11:49:56.529Z,437
2018-02-18T11:50:55.647Z,433
2018-02-18T11:51:55.265Z,437
2018-02-18T11:52:55.752Z,430
2018-02-18T11:53:55.414Z,408
2018-02-18T11:54:55.124Z,317
2018-02-18T11:55:55.856Z,300
2018-02-18T11:56:57.188Z,317
2018-02-18T11:57:55.735Z,270
2018-02-18T11:58:55.601Z,290
2018-02-18T11:59:57.112Z,286
2018-02-18T12:00:56.054Z,320
2018-02-18T12:01:55.067Z,322
2018-02-18T12:02:55.346Z,344
2018-02-18T12:03:54.941Z,345
2018-02-18T12:04:55.557Z,344
2018-02-18T12:05:56.093Z,387
2018-02-18T12:07:18.609Z,397
2018-02-18T12:08:19.022Z,401
2018-02-18T12:09:18.989Z,413
2018-02-18T12:10:18.810Z,415
2018-02-18T12:11:19.248Z,410
2018-02-18T12:12:19.528Z,391
2018-02-18T12:13:40.287Z,400
2018-02-18T12:14:40.947Z,398
2018-02-18T12:15:40.753Z,402
2018-02-18T12:16:40.600Z,403
2018-02-18T12:17:40.681Z,392
2018-02-18T12:18:41.158Z,385
2018-02-18T12:19:40.317Z,387
2018-02-18T12:20:40.334Z,389
2018-02-18T12:21:40.810Z,398
2018-02-18T12:22:40.972Z,392
2018-02-18T12:23:41.116Z,393
2018-02-18T12:24:40.782Z,392
2018-02-18T12:25:40.569Z,385
2018-02-18T12:26:40.363Z,383
2018-02-18T12:27:40.617Z,400
2018-02-18T12:28:40.284Z,410
2018-02-18T12:29:39.944Z,407
2018-02-18T12:30:40.641Z,406
2018-02-18T12:32:02.211Z,417
2018-02-18T12:33:02.978Z,421
2018-02-18T12:34:03.595Z,419
2018-02-18T12:35:02.322Z,406
2018-02-18T12:36:02.555Z,376
2018-02-18T12:37:02.953Z,362
2018-02-18T12:38:03.264Z,335
2018-02-18T12:39:02.057Z,344
2018-02-18T12:40:46.105Z,342
2018-02-18T12:41:46.989Z,326
2018-02-18T12:42:47.828Z,318
2018-02-18T12:43:46.835Z,283
2018-02-18T12:44:47.598Z,257
2018-02-18T12:45:46.939Z,293
2018-02-18T12:46:46.850Z,279
2018-02-18T12:48:08.962Z,262
2018-02-18T12:49:09.527Z,238
2018-02-18T12:50:09.450Z,234
2018-02-18T12:51:09.075Z,267
2018-02-18T12:52:11.454Z,283
2018-02-18T12:53:09.613Z,311
2018-02-18T12:54:52.945Z,298
2018-02-18T12:55:54.282Z,282
2018-02-18T12:56:53.267Z,262
2018-02-18T12:57:54.620Z,241
2018-02-18T12:58:53.815Z,44
2018-02-18T12:59:53.874Z,209
2018-02-18T13:00:53.998Z,203
2018-02-18T13:02:16.743Z,214
2018-02-18T13:03:16.619Z,210
2018-02-18T13:04:16.581Z,221
2018-02-18T13:05:39.263Z,265
2018-02-18T13:06:43.162Z,260
2018-02-18T13:07:45.604Z,297
2018-02-18T13:08:41.464Z,252
2018-02-18T13:09:40.662Z,214
2018-02-18T13:10:39.979Z,180
2018-02-18T13:11:39.680Z,199
2018-02-18T13:12:39.824Z,182
2018-02-18T13:13:39.501Z,168
2018-02-18T13:14:39.756Z,157
2018-02-18T13:15:40.177Z,160
2018-02-18T13:16:39.250Z,175
2018-02-18T13:18:00.443Z,191
2018-02-18T13:19:01.732Z,215
2018-02-18T13:20:00.862Z,231
2018-02-18T13:21:01.929Z,269
2018-02-18T13:22:01.216Z,297
2018-02-18T13:23:01.392Z,266
2018-02-18T13:24:01.564Z,294
2018-02-18T13:25:01.781Z,299
2018-02-18T13:26:02.084Z,298
2018-02-18T13:27:01.467Z,295
2018-02-18T13:28:01.809Z,281
2018-02-18T13:29:01.923Z,268
2018-02-18T13:30:02.494Z,261
2018-02-18T13:31:02.103Z,275
2018-02-18T13:32:02.528Z,275
2018-02-18T13:33:03.223Z,271
2018-02-18T13:34:03.479Z,273
2018-02-18T13:35:01.731Z,268
2018-02-18T13:36:00.918Z,278
2018-02-18T13:37:02.356Z,275
2018-02-18T13:38:01.529Z,221
2018-02-18T13:39:25.020Z,224
2018-02-18T13:40:24.307Z,223
2018-02-18T13:41:24.980Z,230
2018-02-18T13:42:25.503Z,165
2018-02-18T13:43:24.761Z,221
2018-02-18T13:44:26.057Z,175
2018-02-18T13:45:24.673Z,161
2018-02-18T13:46:25.131Z,198
2018-02-18T13:47:24.251Z,184
2018-02-18T13:48:24.297Z,150
2018-02-18T13:49:24.320Z,127
2018-02-18T13:50:24.260Z,140
2018-02-18T13:51:24.093Z,140
2018-02-18T13:52:24.439Z,145
2018-02-18T13:53:25.069Z,151
2018-02-18T13:54:24.318Z,147
2018-02-18T13:55:24.923Z,128
2018-02-18T13:56:24.336Z,127
2018-02-18T13:57:25.585Z,125
2018-02-18T13:58:24.722Z,135
2018-02-18T13:59:25.393Z,149
2018-02-18T14:00:24.737Z,139
2018-02-18T14:01:24.745Z,152
2018-02-18T14:02:46.893Z,197
2018-02-18T14:03:46.050Z,184
2018-02-18T14:04:46.276Z,198
2018-02-18T14:05:47.664Z,153
2018-02-18T14:06:47.844Z,165
2018-02-18T14:08:30.676Z,202
2018-02-18T14:09:30.800Z,213
2018-02-18T14:10:31.031Z,230
2018-02-18T14:11:31.958Z,129
2018-02-18T14:12:31.674Z,112
2018-02-18T14:13:53.699Z,110
2018-02-18T14:14:53.488Z,121
2018-02-18T14:15:53.647Z,111
2018-02-18T14:16:54.541Z,109
2018-02-18T14:17:54.036Z,106
2018-02-18T14:18:53.228Z,106
2018-02-18T14:19:53.245Z,107
2018-02-18T14:20:53.754Z,107
2018-02-18T14:21:54.075Z,119
2018-02-18T14:22:53.825Z,146
2018-02-18T14:23:54.275Z,124
2018-02-18T14:24:53.480Z,125
2018-02-18T14:25:54.104Z,121
2018-02-18T14:26:53.932Z,124
2018-02-18T14:27:53.461Z,133
2018-02-18T14:28:53.232Z,158
2018-02-18T14:29:53.710Z,133
2018-02-18T14:31:15.228Z,123
2018-02-18T14:32:38.864Z,120
2018-02-18T14:33:40.279Z,118
2018-02-18T14:34:39.434Z,119
2018-02-18T14:35:39.703Z,120
2018-02-18T14:36:38.251Z,117
2018-02-18T14:37:38.791Z,113
2018-02-18T14:38:39.590Z,113
2018-02-18T14:39:39.368Z,110
2018-02-18T14:40:39.348Z,106
2018-02-18T14:41:39.323Z,104
2018-02-18T14:43:02.230Z,98
2018-02-18T14:44:03.081Z,96
2018-02-18T14:45:01.777Z,93